createdAt,value
2017-05-18T00:01:04.396Z,6.87
2017-05-18T00:03:39.647Z,6.05
2017-05-18T00:06:14.983Z,5.83
2017-05-18T00:08:50.156Z,7.03
2017-05-18T00:11:25.672Z,6.13
2017-05-18T00:14:01.696Z,6.50
2017-05-18T00:16:37.070Z,7.10
2017-05-18T00:19:12.416Z,6.97
2017-05-18T00:21:47.689Z,6.88
2017-05-18T00:24:22.936Z,7.37
2017-05-18T00:26:58.460Z,6.50
2017-05-18T00:29:33.795Z,6.08
2017-05-18T00:32:09.228Z,6.40
2017-05-18T00:34:44.475Z,9.38
2017-05-18T00:37:19.824Z,6.98
2017-05-18T00:39:55.036Z,7.13
2017-05-18T00:42:31.063Z,8.97
2017-05-18T00:45:06.302Z,7.37
2017-05-18T00:47:41.775Z,6.83
2017-05-18T00:50:16.825Z,7.52
2017-05-18T00:52:52.152Z,7.18
2017-05-18T00:55:27.488Z,9.52
2017-05-18T00:58:02.743Z,7.00
2017-05-18T01:00:38.087Z,7.03
2017-05-18T01:03:13.486Z,6.93
2017-05-18T01:05:48.619Z,7.27
2017-05-18T01:08:23.997Z,6.03
2017-05-18T01:10:59.227Z,7.50
2017-05-18T01:13:35.492Z,7.03
2017-05-18T01:16:10.752Z,7.70
2017-05-18T01:18:46.276Z,7.92
2017-05-18T01:21:21.338Z,9.80
2017-05-18T01:23:56.539Z,7.62
2017-05-18T01:26:31.675Z,7.88
2017-05-18T01:29:07.226Z,8.53
2017-05-18T01:31:42.486Z,6.28
2017-05-18T01:34:18.432Z,7.37
2017-05-18T01:36:53.695Z,7.32
2017-05-18T01:39:29.318Z,8.45
2017-05-18T01:42:04.420Z,8.35
2017-05-18T01:44:39.608Z,7.85
2017-05-18T01:47:14.809Z,7.23
2017-05-18T01:49:50.370Z,9.97
2017-05-18T01:52:25.609Z,7.95
2017-05-18T01:55:01.154Z,8.57
2017-05-18T01:57:36.296Z,7.83
2017-05-18T02:00:12.258Z,8.55
2017-05-18T02:02:47.511Z,7.60
2017-05-18T02:05:22.812Z,9.18
2017-05-18T02:07:58.075Z,8.37
2017-05-18T02:10:33.485Z,9.42
2017-05-18T02:13:09.520Z,8.57
2017-05-18T02:15:44.919Z,7.88
2017-05-18T02:18:20.067Z,8.97
2017-05-18T02:23:35.646Z,8.70
2017-05-18T02:26:10.814Z,7.95
2017-05-18T02:28:46.116Z,8.53
2017-05-18T02:31:21.439Z,8.63
2017-05-18T02:33:56.763Z,8.52
2017-05-18T02:36:32.127Z,8.63
2017-05-18T02:39:07.367Z,8.08
2017-05-18T02:41:43.427Z,8.43
2017-05-18T02:44:18.589Z,8.92
2017-05-18T02:46:53.773Z,8.50
2017-05-18T02:49:29.139Z,8.80
2017-05-18T02:52:04.696Z,9.85
2017-05-18T02:54:40.521Z,9.43
2017-05-18T02:57:15.823Z,9.58
2017-05-18T02:59:51.028Z,8.18
2017-05-18T03:02:26.466Z,8.85
2017-05-18T03:05:02.392Z,9.92
2017-05-18T03:07:37.882Z,9.52
2017-05-18T03:10:13.105Z,10.25
2017-05-18T03:12:48.437Z,8.80
2017-05-18T03:15:23.740Z,9.22
2017-05-18T03:17:58.952Z,12.32
2017-05-18T03:20:34.156Z,13.15
2017-05-18T03:23:10.127Z,8.95
2017-05-18T03:25:46.155Z,8.90
2017-05-18T03:28:21.528Z,9.28
2017-05-18T03:30:56.739Z,10.15
2017-05-18T03:33:32.023Z,9.82
2017-05-18T03:36:07.231Z,10.00
2017-05-18T03:38:42.539Z,10.43
2017-05-18T03:41:17.763Z,10.70
2017-05-18T03:43:53.254Z,9.75
2017-05-18T03:46:28.494Z,10.35
2017-05-18T03:49:03.776Z,9.75
2017-05-18T03:51:38.992Z,10.58
2017-05-18T03:54:14.236Z,11.32
2017-05-18T03:56:49.439Z,10.75
2017-05-18T03:59:24.744Z,9.75
2017-05-18T04:01:59.855Z,11.17
2017-05-18T04:04:35.352Z,9.67
2017-05-18T04:07:10.498Z,10.23
2017-05-18T04:09:45.789Z,10.17
2017-05-18T04:12:21.857Z,10.13
2017-05-18T04:14:57.870Z,10.77
2017-05-18T04:17:33.044Z,9.35
2017-05-18T04:20:08.332Z,10.42
2017-05-18T04:22:44.339Z,8.90
2017-05-18T04:25:20.376Z,11.22
2017-05-18T04:27:56.356Z,9.07
2017-05-18T04:30:31.687Z,11.13
2017-05-18T04:33:06.894Z,10.98
2017-05-18T04:35:42.216Z,10.10
2017-05-18T04:38:18.145Z,10.02
2017-05-18T04:40:53.439Z,10.75
2017-05-18T04:43:28.541Z,11.38
2017-05-18T04:46:04.173Z,10.28
2017-05-18T04:48:39.319Z,11.02
2017-05-18T04:51:14.529Z,10.32
2017-05-18T04:53:49.700Z,9.88
2017-05-18T04:56:25.705Z,10.73
2017-05-18T04:59:01.587Z,10.52
2017-05-18T05:01:36.937Z,10.62
2017-05-18T05:04:12.283Z,10.57
2017-05-18T05:06:47.678Z,9.73
2017-05-18T05:09:22.919Z,10.45
2017-05-18T05:11:58.141Z,10.72
2017-05-18T05:14:33.258Z,11.27
2017-05-18T05:17:08.474Z,9.88
2017-05-18T05:19:43.702Z,9.07
2017-05-18T05:22:18.976Z,11.13
2017-05-18T05:24:54.929Z,11.08
2017-05-18T05:27:30.218Z,9.22
2017-05-18T05:30:06.209Z,9.43
2017-05-18T05:32:41.552Z,10.12
2017-05-18T05:35:16.690Z,9.63
2017-05-18T05:37:51.964Z,11.53
2017-05-18T05:40:27.353Z,9.60
2017-05-18T05:43:03.176Z,10.63
2017-05-18T05:45:39.178Z,9.70
2017-05-18T05:48:14.375Z,9.90
2017-05-18T05:50:49.523Z,8.28
2017-05-18T05:53:24.804Z,14.72
2017-05-18T05:56:00.116Z,8.75
2017-05-18T05:58:35.394Z,7.98
2017-05-18T06:01:11.312Z,9.02
2017-05-18T06:03:46.627Z,8.33
2017-05-18T06:06:21.900Z,8.78
2017-05-18T06:08:57.197Z,9.06
2017-05-18T06:11:32.501Z,8.84
2017-05-18T06:14:07.725Z,8.48
2017-05-18T06:16:42.915Z,9.34
2017-05-18T06:19:18.363Z,8.68
2017-05-18T06:21:53.512Z,7.78
2017-05-18T06:24:29.681Z,7.72
2017-05-18T06:27:04.956Z,7.32
2017-05-18T06:29:40.371Z,8.16
2017-05-18T06:32:16.556Z,7.70
2017-05-18T06:34:51.807Z,7.70
2017-05-18T06:37:27.140Z,7.96
2017-05-18T06:40:02.370Z,7.64
2017-05-18T06:42:37.724Z,7.18
2017-05-18T06:45:12.952Z,8.00
2017-05-18T06:47:48.242Z,6.66
2017-05-18T06:50:23.619Z,7.36
2017-05-18T06:52:58.983Z,7.74
2017-05-18T06:55:34.211Z,9.14
2017-05-18T06:58:09.552Z,8.52
2017-05-18T07:00:45.555Z,14.94
2017-05-18T07:03:21.040Z,8.22
2017-05-18T07:05:56.385Z,8.04
2017-05-18T07:08:31.678Z,8.28
2017-05-18T07:11:07.055Z,8.98
2017-05-18T07:13:42.941Z,10.24
2017-05-18T07:16:18.263Z,8.60
2017-05-18T07:18:53.461Z,8.24
2017-05-18T07:21:29.428Z,8.78
2017-05-18T07:24:05.001Z,8.90
2017-05-18T07:26:40.235Z,9.22
2017-05-18T07:29:15.588Z,8.12
2017-05-18T07:31:50.961Z,9.94
2017-05-18T07:34:26.204Z,8.80
2017-05-18T07:37:01.479Z,8.60
2017-05-18T07:39:37.564Z,9.92
2017-05-18T07:42:12.899Z,9.40
2017-05-18T07:44:48.151Z,8.56
2017-05-18T07:47:23.579Z,8.04
2017-05-18T07:49:58.751Z,9.08
2017-05-18T07:52:34.055Z,8.06
2017-05-18T07:55:09.283Z,13.28
2017-05-18T07:57:45.270Z,15.26
2017-05-18T08:00:20.556Z,7.96
2017-05-18T08:02:56.031Z,9.70
2017-05-18T08:05:31.319Z,8.44
2017-05-18T08:08:06.655Z,9.36
2017-05-18T08:10:41.900Z,7.86
2017-05-18T08:13:17.396Z,12.12
2017-05-18T08:15:52.488Z,7.64
2017-05-18T08:18:27.680Z,7.76
2017-05-18T08:21:02.896Z,7.88
2017-05-18T08:23:38.304Z,7.52
2017-05-18T08:26:13.595Z,7.58
2017-05-18T08:28:49.840Z,13.40
2017-05-18T08:31:25.171Z,8.08
2017-05-18T08:34:00.511Z,7.10
2017-05-18T08:36:35.813Z,7.10
2017-05-18T08:39:11.052Z,7.66
2017-05-18T08:41:46.863Z,8.60
2017-05-18T08:44:22.331Z,6.76
2017-05-18T08:46:57.606Z,7.08
2017-05-18T08:49:32.871Z,6.92
2017-05-18T08:52:08.353Z,7.52
2017-05-18T08:54:43.769Z,6.70
2017-05-18T08:57:19.039Z,6.78
2017-05-18T08:59:54.283Z,6.00
2017-05-18T09:02:30.173Z,7.24
2017-05-18T09:05:05.392Z,6.48
2017-05-18T09:07:41.564Z,6.42
2017-05-18T09:10:17.982Z,7.28
2017-05-18T09:12:53.220Z,6.86
2017-05-18T09:15:28.736Z,6.98
2017-05-18T09:18:04.854Z,7.22
2017-05-18T09:20:40.363Z,6.38
2017-05-18T09:23:17.081Z,6.32
2017-05-18T09:25:52.422Z,6.98
2017-05-18T09:28:27.642Z,6.22
2017-05-18T09:31:03.575Z,6.12
2017-05-18T09:33:39.827Z,12.74
2017-05-18T09:36:15.508Z,7.52
2017-05-18T09:38:50.591Z,6.96
2017-05-18T09:41:27.002Z,7.62
2017-05-18T09:44:02.333Z,7.26
2017-05-18T09:46:37.540Z,10.22
2017-05-18T09:49:12.711Z,7.38
2017-05-18T09:51:47.949Z,6.50
2017-05-18T09:54:23.196Z,7.82
2017-05-18T09:56:58.384Z,7.92
2017-05-18T09:59:33.761Z,7.40
2017-05-18T10:02:09.010Z,7.80
2017-05-18T10:04:44.301Z,9.10
2017-05-18T10:07:19.485Z,9.38
2017-05-18T10:09:55.436Z,12.42
2017-05-18T10:15:36.191Z,10.90
2017-05-18T10:18:12.079Z,10.18
2017-05-18T10:20:47.376Z,8.46
2017-05-18T10:23:22.515Z,7.06
2017-05-18T10:25:57.975Z,11.92
2017-05-18T10:28:33.294Z,8.74
2017-05-18T10:31:08.621Z,10.38
2017-05-18T10:33:43.781Z,7.28
2017-05-18T10:36:19.113Z,11.80
2017-05-18T10:38:54.287Z,8.44
2017-05-18T10:41:30.541Z,9.50
2017-05-18T10:44:05.750Z,9.62
2017-05-18T10:46:40.927Z,8.42
2017-05-18T10:49:16.068Z,8.72
2017-05-18T10:51:51.583Z,9.84
2017-05-18T10:54:26.860Z,8.88
2017-05-18T10:57:02.055Z,9.48
2017-05-18T10:59:37.312Z,8.64
2017-05-18T11:02:12.776Z,9.12
2017-05-18T11:04:48.028Z,9.28
2017-05-18T11:07:23.266Z,8.36
2017-05-18T11:09:58.416Z,7.98
2017-05-18T11:12:33.904Z,7.88
2017-05-18T11:15:10.864Z,5.50
2017-05-18T11:17:46.029Z,6.50
2017-05-18T11:20:21.251Z,7.62
2017-05-18T11:22:56.928Z,5.88
2017-05-18T11:25:32.096Z,5.70
2017-05-18T11:31:12.984Z,6.00
2017-05-18T11:33:49.012Z,6.88
2017-05-18T11:36:24.307Z,7.84
2017-05-18T11:38:59.479Z,6.26
2017-05-18T11:41:34.751Z,7.30
2017-05-18T11:44:10.819Z,6.66
2017-05-18T11:46:46.633Z,7.00
2017-05-18T11:49:21.910Z,7.38
2017-05-18T11:51:57.876Z,7.12
2017-05-18T11:54:33.276Z,8.58
2017-05-18T11:57:08.348Z,10.26
2017-05-18T11:59:43.664Z,9.72
2017-05-18T12:02:18.858Z,10.06
2017-05-18T12:04:56.002Z,11.50
2017-05-18T12:07:32.120Z,12.00
2017-05-18T12:10:07.477Z,12.76
2017-05-18T12:12:42.665Z,13.04
2017-05-18T12:15:18.740Z,12.42
2017-05-18T12:17:54.447Z,12.38
2017-05-18T12:20:29.816Z,13.20
2017-05-18T12:23:05.102Z,12.86
2017-05-18T12:25:40.847Z,13.62
2017-05-18T12:28:15.882Z,22.96
2017-05-18T12:30:51.450Z,17.86
2017-05-18T12:33:27.241Z,23.08
2017-05-18T12:36:03.239Z,18.70
2017-05-18T12:38:43.830Z,20.18
2017-05-18T12:41:19.826Z,21.80
2017-05-18T12:43:56.264Z,19.94
2017-05-18T12:46:35.946Z,22.04
2017-05-18T12:49:11.247Z,20.36
2017-05-18T12:51:47.431Z,21.38
2017-05-18T12:54:23.447Z,21.26
2017-05-18T12:56:58.643Z,24.02
2017-05-18T12:59:33.988Z,26.46
2017-05-18T13:02:09.931Z,20.54
2017-05-18T13:04:46.300Z,22.68
2017-05-18T13:07:21.584Z,21.44
2017-05-18T13:09:56.932Z,19.32
2017-05-18T13:12:32.135Z,27.30
2017-05-18T13:15:07.509Z,23.64
2017-05-18T13:17:42.822Z,22.50
2017-05-18T13:20:18.351Z,19.24
2017-05-18T13:22:53.585Z,14.12
2017-05-18T13:25:28.725Z,18.20
2017-05-18T13:28:04.155Z,17.40
2017-05-18T13:30:39.320Z,20.34
2017-05-18T13:33:15.547Z,21.06
2017-05-18T13:35:51.621Z,20.22
2017-05-18T13:38:27.064Z,19.52
2017-05-18T13:41:02.402Z,18.68
2017-05-18T13:43:37.545Z,18.02
2017-05-18T13:46:13.360Z,15.82
2017-05-18T13:48:48.868Z,15.10
2017-05-18T13:51:24.091Z,15.98
2017-05-18T13:54:00.152Z,15.62
2017-05-18T13:56:35.371Z,13.38
2017-05-18T13:59:10.729Z,12.18
2017-05-18T14:01:45.967Z,9.55
2017-05-18T14:04:21.279Z,9.20
2017-05-18T14:06:56.407Z,7.30
2017-05-18T14:09:31.699Z,6.42
2017-05-18T14:12:06.855Z,6.70
2017-05-18T14:14:43.105Z,6.28
2017-05-18T14:17:18.301Z,7.47
2017-05-18T14:19:53.860Z,7.47
2017-05-18T14:22:29.032Z,8.23
2017-05-18T14:25:04.483Z,8.88
2017-05-18T14:27:39.794Z,11.08
2017-05-18T14:30:15.809Z,9.25
2017-05-18T14:32:51.589Z,9.25
2017-05-18T14:35:26.753Z,9.33
2017-05-18T14:38:03.032Z,10.17
2017-05-18T14:40:39.458Z,8.28
2017-05-18T14:43:14.678Z,8.68
2017-05-18T14:45:49.911Z,10.30
2017-05-18T14:48:26.145Z,10.70
2017-05-18T14:51:01.413Z,12.45
2017-05-18T14:53:36.797Z,6.60
2017-05-18T14:56:12.083Z,5.43
2017-05-18T14:58:47.333Z,6.85
2017-05-18T15:01:22.875Z,7.25
2017-05-18T15:03:57.927Z,7.90
2017-05-18T15:06:33.988Z,7.53
2017-05-18T15:09:09.909Z,6.38
2017-05-18T15:11:46.027Z,11.02
2017-05-18T15:14:22.047Z,7.90
2017-05-18T15:16:57.596Z,7.20
2017-05-18T15:19:32.656Z,8.13
2017-05-18T15:22:07.872Z,8.24
2017-05-18T15:24:43.079Z,8.58
2017-05-18T15:27:18.283Z,7.62
2017-05-18T15:29:53.487Z,2.20
2017-05-18T15:32:28.665Z,7.17
2017-05-18T15:35:03.871Z,6.45
2017-05-18T15:37:39.301Z,5.75
2017-05-18T15:40:14.620Z,5.80
2017-05-18T15:42:49.876Z,6.22
2017-05-18T15:45:25.894Z,6.57
2017-05-18T15:48:01.177Z,5.05
2017-05-18T15:50:37.203Z,5.53
2017-05-18T15:53:12.515Z,3.87
2017-05-18T15:55:48.472Z,5.70
2017-05-18T15:58:23.807Z,5.37
2017-05-18T16:00:59.069Z,6.77
2017-05-18T16:03:34.422Z,5.23
2017-05-18T16:06:09.675Z,4.73
2017-05-18T16:08:44.902Z,4.33
2017-05-18T16:11:20.237Z,5.05
2017-05-18T16:13:55.786Z,5.07
2017-05-18T16:16:31.146Z,4.58
2017-05-18T16:19:06.584Z,4.28
2017-05-18T16:21:41.736Z,3.33
2017-05-18T16:24:17.999Z,3.47
2017-05-18T16:26:54.014Z,2.05
2017-05-18T16:29:29.493Z,5.30
2017-05-18T16:32:05.345Z,3.52
2017-05-18T16:34:40.905Z,3.52
2017-05-18T16:37:16.055Z,3.45
2017-05-18T16:39:51.312Z,2.97
2017-05-18T16:42:26.397Z,4.07
2017-05-18T16:45:01.733Z,3.07
2017-05-18T16:47:37.347Z,3.83
2017-05-18T16:50:12.643Z,2.63
2017-05-18T16:55:53.152Z,8.22
2017-05-18T16:58:28.276Z,3.52
2017-05-18T17:01:03.499Z,3.67
2017-05-18T17:03:38.775Z,2.47
2017-05-18T17:06:14.156Z,4.07
2017-05-18T17:08:50.140Z,2.93
2017-05-18T17:11:25.403Z,2.98
2017-05-18T17:14:00.512Z,2.60
2017-05-18T17:16:36.020Z,2.08
2017-05-18T17:19:11.307Z,3.88
2017-05-18T17:21:46.529Z,5.78
2017-05-18T17:24:21.684Z,2.45
2017-05-18T17:26:57.703Z,3.10
2017-05-18T17:29:32.912Z,2.35
2017-05-18T17:32:07.572Z,2.42
2017-05-18T17:34:42.706Z,2.20
2017-05-18T17:37:18.299Z,1.78
2017-05-18T17:39:53.546Z,1.70
2017-05-18T17:42:28.881Z,2.15
2017-05-18T17:45:03.996Z,2.55
2017-05-18T17:47:39.492Z,1.52
2017-05-18T17:50:14.658Z,1.78
2017-05-18T17:52:50.201Z,2.43
2017-05-18T17:55:25.441Z,1.53
2017-05-18T17:58:00.776Z,3.50
2017-05-18T18:00:36.616Z,2.83
2017-05-18T18:03:12.080Z,1.60
2017-05-18T18:05:47.333Z,2.08
2017-05-18T18:08:27.173Z,2.87
2017-05-18T18:11:03.182Z,2.88
2017-05-18T18:13:38.755Z,2.10
2017-05-18T18:16:13.950Z,2.63
2017-05-18T18:18:49.439Z,4.17
2017-05-18T18:21:25.492Z,3.73
2017-05-18T18:24:00.744Z,5.30
2017-05-18T18:26:35.951Z,2.93
2017-05-18T18:29:11.303Z,3.67
2017-05-18T18:31:47.230Z,5.45
2017-05-18T18:34:22.531Z,3.03
2017-05-18T18:36:58.779Z,2.75
2017-05-18T18:39:34.901Z,3.15
2017-05-18T18:42:10.120Z,3.35
2017-05-18T18:44:48.428Z,4.08
2017-05-18T18:47:32.160Z,3.07
2017-05-18T18:50:07.541Z,3.45
2017-05-18T18:52:43.741Z,2.35
2017-05-18T18:55:19.828Z,2.00
2017-05-18T18:57:55.251Z,2.07
2017-05-18T19:00:33.303Z,1.98
2017-05-18T19:03:08.759Z,3.47
2017-05-18T19:05:44.196Z,3.30
2017-05-18T19:08:20.689Z,2.18
2017-05-18T19:10:55.887Z,4.25
2017-05-18T19:13:32.672Z,2.48
2017-05-18T19:16:08.946Z,7.82
2017-05-18T19:18:45.019Z,3.47
2017-05-18T19:21:20.259Z,2.63
2017-05-18T19:23:55.577Z,2.77
2017-05-18T19:26:31.411Z,4.70
2017-05-18T19:29:06.587Z,3.92
2017-05-18T19:31:41.748Z,2.90
2017-05-18T19:34:21.569Z,7.52
2017-05-18T19:36:56.845Z,8.20
2017-05-18T19:39:32.252Z,3.98
2017-05-18T19:42:08.147Z,4.77
2017-05-18T19:44:43.394Z,4.13
2017-05-18T19:47:18.880Z,6.07
2017-05-18T19:49:55.514Z,4.58
2017-05-18T19:52:30.795Z,3.18
2017-05-18T19:55:06.252Z,2.87
2017-05-18T19:57:41.641Z,5.18
2017-05-18T20:00:16.924Z,4.30
2017-05-18T20:02:52.230Z,5.12
2017-05-18T20:05:27.461Z,5.03
2017-05-18T20:08:03.100Z,4.25
2017-05-18T20:10:38.535Z,5.15
2017-05-18T20:13:13.792Z,4.35
2017-05-18T20:15:49.105Z,4.48
2017-05-18T20:18:25.212Z,5.25
2017-05-18T20:21:01.736Z,5.65
2017-05-18T20:23:38.163Z,5.55
2017-05-18T20:26:13.328Z,6.00
2017-05-18T20:28:49.523Z,4.42
2017-05-18T20:31:24.660Z,4.70
2017-05-18T20:33:59.992Z,7.10
2017-05-18T20:36:35.138Z,5.23
2017-05-18T20:39:10.314Z,5.00
2017-05-18T20:41:45.563Z,4.87
2017-05-18T20:44:20.987Z,3.92
2017-05-18T20:46:56.196Z,4.03
2017-05-18T20:49:31.772Z,4.68
2017-05-18T20:52:06.999Z,4.48
2017-05-18T20:54:42.171Z,5.58
2017-05-18T20:57:18.162Z,5.88
2017-05-18T20:59:54.068Z,4.68
2017-05-18T21:02:29.151Z,5.60
2017-05-18T21:05:04.507Z,5.40
2017-05-18T21:07:39.757Z,7.13
2017-05-18T21:10:15.277Z,5.38
2017-05-18T21:12:50.507Z,5.62
2017-05-18T21:15:26.828Z,5.87
2017-05-18T21:18:02.067Z,7.78
2017-05-18T21:20:37.522Z,6.53
2017-05-18T21:23:12.656Z,6.43
2017-05-18T21:25:48.260Z,6.58
2017-05-18T21:28:23.722Z,7.63
2017-05-18T21:30:58.860Z,8.33
2017-05-18T21:33:34.148Z,8.18
2017-05-18T21:36:10.113Z,7.30
2017-05-18T21:38:45.365Z,9.15
2017-05-18T21:41:20.652Z,8.22
2017-05-18T21:43:57.056Z,12.83
2017-05-18T21:46:32.420Z,10.32
2017-05-18T21:49:07.695Z,11.65
2017-05-18T21:51:42.803Z,10.62
2017-05-18T21:54:18.107Z,9.25
2017-05-18T21:56:53.268Z,11.65
2017-05-18T21:59:29.447Z,10.85
2017-05-18T22:05:04.299Z,11.00
2017-05-18T22:07:39.619Z,12.07
2017-05-18T22:10:14.970Z,11.25
2017-05-18T22:20:50.123Z,14.35
2017-05-18T22:23:25.364Z,14.45
2017-05-18T22:26:00.804Z,14.45
2017-05-18T22:31:36.320Z,14.88
2017-05-18T22:37:16.625Z,16.63
2017-05-18T22:39:52.577Z,17.78
2017-05-18T22:42:28.466Z,18.02
2017-05-18T22:45:04.394Z,19.50
2017-05-18T22:47:39.650Z,20.83
2017-05-18T22:50:15.708Z,19.07
2017-05-18T22:52:50.912Z,21.88
2017-05-18T22:55:26.976Z,25.75
2017-05-18T22:58:02.181Z,17.07
2017-05-18T23:00:38.174Z,17.82
2017-05-18T23:03:14.233Z,17.22
2017-05-18T23:05:49.408Z,20.57
2017-05-18T23:08:24.932Z,18.88
2017-05-18T23:10:59.936Z,19.93
2017-05-18T23:13:35.161Z,19.60
2017-05-18T23:16:10.317Z,18.30
2017-05-18T23:18:45.677Z,17.08
2017-05-18T23:21:20.825Z,17.33
2017-05-18T23:23:56.367Z,19.03
2017-05-18T23:26:31.605Z,21.80
2017-05-18T23:29:07.153Z,26.25
2017-05-18T23:31:42.385Z,24.27
2017-05-18T23:34:17.835Z,22.77
2017-05-18T23:36:53.661Z,21.93
2017-05-18T23:39:28.952Z,21.18
2017-05-18T23:45:09.022Z,23.43
2017-05-18T23:47:44.101Z,21.47
2017-05-18T23:50:20.185Z,27.33
2017-05-18T23:56:00.561Z,20.30
2017-05-18T23:58:35.809Z,24.12
